Terminal Aerodrome Forecast
Issued by NWS Wilmington, OH

Current Version | Previous Version | Text Only | Print | Product List | Glossary Off
Versions: 1 2 3 4 5 6 7 8 9 10 11 12 13 14 15 16 17 18 19 20 21 22 23 24 25 26

000
FTUS41 KILN 180956 AAA
TAFDAY
TAF AMD
KDAY 180956Z 1810/1906 31012KT P6SM SCT015 OVC025
      TEMPO 1811/1813 OVC015
     FM181500 16009KT P6SM FEW015 SCT250
     FM182300 14010KT P6SM SCT250=

USA.gov is the U.S. government's official web portal to all federal, state and local government web resources and services.